SWA1080 KLAX-KSJC
Flight info
| Callsign | SWA1080 |
|---|---|
| Flight time | N/A |
| Altitude | 36000 |
| Route | SUMMR2 SCTRR TROXX SILCN6 |
| Aircraft | B738/M-SADE2E3GIJ4RWZ/LB1D1 |
Departure
| Time | 2026-05-07 23:53 |
|---|---|
| Airport | Los Angeles International Airport (KLAX) |
Arrival
| Time | N/A |
|---|---|
| Airport | Norman Y. Mineta San Jose International Airport (KSJC) |
| Time | Latitude | Longitude | Altitude | Speed | Heading |
|---|---|---|---|---|---|
| 2026-05-07 23:31 | 33.94657 | -118.40067 | 125 ft | 0 kts | 277° |
| 2026-05-07 23:42 | 33.94656 | -118.40060 | 125 ft | 2 kts | 277° |
| 2026-05-07 23:42 | 33.94654 | -118.40040 | 121 ft | 2 kts | 277° |
| 2026-05-07 23:42 | 33.94652 | -118.40021 | 125 ft | 2 kts | 278° |
| 2026-05-07 23:43 | 33.94651 | -118.40013 | 125 ft | 0 kts | 284° |
| 2026-05-07 23:44 | 33.94652 | -118.40014 | 125 ft | 1 kts | 287° |
| 2026-05-07 23:44 | 33.94694 | -118.40014 | 122 ft | 13 kts | 8° |
| 2026-05-07 23:44 | 33.94752 | -118.40008 | 122 ft | 0 kts | 5° |
| 2026-05-07 23:46 | 33.94788 | -118.40005 | 121 ft | 17 kts | 4° |
| 2026-05-07 23:46 | 33.94887 | -118.40060 | 121 ft | 10 kts | 351° |
| 2026-05-07 23:46 | 33.94925 | -118.40001 | 125 ft | 1 kts | 84° |
| 2026-05-07 23:47 | 33.94926 | -118.39992 | 125 ft | 0 kts | 84° |
| 2026-05-07 23:48 | 33.94926 | -118.39986 | 125 ft | 4 kts | 81° |
| 2026-05-07 23:48 | 33.94945 | -118.39934 | 124 ft | 2 kts | 50° |
| 2026-05-07 23:48 | 33.94947 | -118.39932 | 125 ft | 0 kts | 49° |
| 2026-05-07 23:51 | 33.94950 | -118.39929 | 123 ft | 6 kts | 44° |
| 2026-05-07 23:51 | 33.95022 | -118.39921 | 122 ft | 16 kts | 330° |
| 2026-05-07 23:52 | 33.95037 | -118.40004 | 123 ft | 0 kts | 263° |
| 2026-05-07 23:53 | 33.95036 | -118.40014 | 120 ft | 13 kts | 263° |
| 2026-05-07 23:53 | 33.94978 | -118.40567 | 125 ft | 116 kts | 263° |
| 2026-05-07 23:53 | 33.94858 | -118.41837 | 451 ft | 168 kts | 265° |
| 2026-05-07 23:53 | 33.94746 | -118.43178 | 1867 ft | 157 kts | 263° |
| 2026-05-07 23:54 | 33.94612 | -118.44469 | 3279 ft | 153 kts | 264° |
| 2026-05-07 23:54 | 33.94473 | -118.45705 | 4398 ft | 148 kts | 263° |
| 2026-05-07 23:54 | 33.94328 | -118.47183 | 4413 ft | 201 kts | 267° |
| 2026-05-07 23:54 | 33.94265 | -118.48992 | 4593 ft | 231 kts | 269° |
| 2026-05-07 23:55 | 33.94216 | -118.50959 | 4702 ft | 237 kts | 268° |
| 2026-05-07 23:55 | 33.94090 | -118.52939 | 4797 ft | 238 kts | 265° |
| 2026-05-07 23:55 | 33.93926 | -118.54913 | 4923 ft | 237 kts | 265° |
| 2026-05-07 23:55 | 33.93763 | -118.56895 | 4987 ft | 239 kts | 265° |
| 2026-05-07 23:56 | 33.93602 | -118.58902 | 5002 ft | 242 kts | 265° |
| 2026-05-07 23:56 | 33.93442 | -118.60910 | 5006 ft | 240 kts | 265° |
| 2026-05-07 23:56 | 33.93285 | -118.62893 | 5196 ft | 235 kts | 265° |
| 2026-05-07 23:56 | 33.93129 | -118.64865 | 5520 ft | 240 kts | 265° |
| 2026-05-07 23:57 | 33.92974 | -118.66865 | 5845 ft | 245 kts | 265° |
| 2026-05-07 23:57 | 33.92813 | -118.68947 | 6166 ft | 248 kts | 265° |
| 2026-05-07 23:57 | 33.92653 | -118.71012 | 6481 ft | 249 kts | 265° |
| 2026-05-07 23:57 | 33.92493 | -118.73061 | 6782 ft | 249 kts | 266° |
| 2026-05-07 23:58 | 33.92332 | -118.75142 | 7088 ft | 250 kts | 266° |
| 2026-05-07 23:58 | 33.92169 | -118.77232 | 7389 ft | 251 kts | 266° |
| 2026-05-07 23:58 | 33.92004 | -118.79335 | 7701 ft | 253 kts | 266° |
| 2026-05-07 23:58 | 33.91838 | -118.81444 | 8061 ft | 253 kts | 266° |
| 2026-05-07 23:59 | 33.91684 | -118.83565 | 8423 ft | 257 kts | 270° |
| 2026-05-07 23:59 | 33.91700 | -118.85738 | 8756 ft | 262 kts | 274° |
| 2026-05-07 23:59 | 33.91787 | -118.87942 | 9078 ft | 264 kts | 275° |
| 2026-05-07 23:59 | 33.91877 | -118.90156 | 9399 ft | 266 kts | 275° |
| 2026-05-08 00:00 | 33.91959 | -118.92386 | 9741 ft | 267 kts | 274° |
| 2026-05-08 00:00 | 33.92031 | -118.94628 | 10056 ft | 269 kts | 274° |
| 2026-05-08 00:00 | 33.92098 | -118.96858 | 10354 ft | 270 kts | 274° |
| 2026-05-08 00:00 | 33.92166 | -118.99158 | 10657 ft | 272 kts | 274° |
| 2026-05-08 00:01 | 33.92353 | -119.01421 | 10954 ft | 273 kts | 289° |
| 2026-05-08 00:01 | 33.93282 | -119.03374 | 11274 ft | 270 kts | 315° |
| 2026-05-08 00:01 | 33.94658 | -119.04923 | 11616 ft | 274 kts | 320° |
| 2026-05-08 00:01 | 33.96163 | -119.06474 | 11976 ft | 296 kts | 321° |
| 2026-05-08 00:02 | 33.97800 | -119.08135 | 12333 ft | 318 kts | 321° |
| 2026-05-08 00:02 | 33.99552 | -119.09902 | 12682 ft | 338 kts | 321° |
| 2026-05-08 00:02 | 34.01407 | -119.11764 | 13033 ft | 356 kts | 321° |
| 2026-05-08 00:02 | 34.03353 | -119.13714 | 13378 ft | 369 kts | 321° |
| 2026-05-08 00:03 | 34.05313 | -119.15677 | 13711 ft | 373 kts | 322° |
| 2026-05-08 00:03 | 34.07316 | -119.17683 | 14017 ft | 375 kts | 322° |
| 2026-05-08 00:03 | 34.09326 | -119.19698 | 14312 ft | 377 kts | 321° |
| 2026-05-08 00:03 | 34.11346 | -119.21722 | 14607 ft | 378 kts | 321° |
| 2026-05-08 00:04 | 34.13260 | -119.23641 | 14871 ft | 379 kts | 322° |
| 2026-05-08 00:04 | 34.15299 | -119.25656 | 15177 ft | 379 kts | 323° |
| 2026-05-08 00:04 | 34.17371 | -119.27624 | 15473 ft | 380 kts | 323° |
| 2026-05-08 00:04 | 34.19464 | -119.29584 | 15788 ft | 381 kts | 323° |
| 2026-05-08 00:05 | 34.21537 | -119.31520 | 16105 ft | 382 kts | 323° |
| 2026-05-08 00:05 | 34.23643 | -119.33494 | 16432 ft | 383 kts | 323° |
| 2026-05-08 00:05 | 34.25750 | -119.35475 | 16754 ft | 385 kts | 323° |
| 2026-05-08 00:05 | 34.27866 | -119.37471 | 17084 ft | 386 kts | 323° |
| 2026-05-08 00:06 | 34.29990 | -119.39480 | 17416 ft | 388 kts | 323° |
| 2026-05-08 00:06 | 34.32120 | -119.41500 | 17754 ft | 390 kts | 323° |
| 2026-05-08 00:06 | 34.34257 | -119.43528 | 18093 ft | 391 kts | 323° |
| 2026-05-08 00:06 | 34.36398 | -119.45562 | 18420 ft | 393 kts | 323° |
| 2026-05-08 00:07 | 34.38554 | -119.47612 | 18717 ft | 394 kts | 323° |
| 2026-05-08 00:07 | 34.40716 | -119.49671 | 19012 ft | 396 kts | 323° |
| 2026-05-08 00:07 | 34.42884 | -119.51735 | 19314 ft | 397 kts | 323° |
| 2026-05-08 00:07 | 34.45053 | -119.53803 | 19616 ft | 398 kts | 323° |
| 2026-05-08 00:08 | 34.47238 | -119.55886 | 19929 ft | 400 kts | 323° |
| 2026-05-08 00:08 | 34.49428 | -119.57977 | 20230 ft | 402 kts | 323° |
| 2026-05-08 00:08 | 34.51632 | -119.60081 | 20552 ft | 404 kts | 323° |
| 2026-05-08 00:08 | 34.53845 | -119.62195 | 20872 ft | 405 kts | 323° |
| 2026-05-08 00:09 | 34.56038 | -119.64292 | 21184 ft | 407 kts | 323° |
| 2026-05-08 00:09 | 34.58274 | -119.66431 | 21513 ft | 409 kts | 323° |
| 2026-05-08 00:09 | 34.60507 | -119.68569 | 21846 ft | 411 kts | 323° |
| 2026-05-08 00:09 | 34.62758 | -119.70725 | 22173 ft | 413 kts | 323° |
| 2026-05-08 00:10 | 34.65014 | -119.72888 | 22517 ft | 415 kts | 323° |
| 2026-05-08 00:10 | 34.67283 | -119.75064 | 22861 ft | 417 kts | 323° |
| 2026-05-08 00:10 | 34.69561 | -119.77253 | 23218 ft | 419 kts | 322° |
| 2026-05-08 00:10 | 34.71851 | -119.79454 | 23604 ft | 420 kts | 323° |
| 2026-05-08 00:11 | 34.74149 | -119.81665 | 23946 ft | 424 kts | 323° |
| 2026-05-08 00:11 | 34.76473 | -119.83900 | 24285 ft | 428 kts | 323° |
| 2026-05-08 00:11 | 34.78823 | -119.86162 | 24634 ft | 433 kts | 323° |
| 2026-05-08 00:11 | 34.81189 | -119.88444 | 24978 ft | 435 kts | 322° |
| 2026-05-08 00:12 | 34.83572 | -119.90743 | 25333 ft | 437 kts | 322° |
| 2026-05-08 00:12 | 34.85958 | -119.93046 | 25688 ft | 439 kts | 322° |
| 2026-05-08 00:12 | 34.88358 | -119.95365 | 26042 ft | 440 kts | 322° |
| 2026-05-08 00:12 | 34.90762 | -119.97689 | 26400 ft | 441 kts | 323° |
| 2026-05-08 00:13 | 34.93161 | -120.00010 | 26795 ft | 435 kts | 322° |
| 2026-05-08 00:13 | 34.95451 | -120.02230 | 27252 ft | 406 kts | 323° |
| 2026-05-08 00:13 | 34.97591 | -120.04307 | 27719 ft | 379 kts | 322° |
| 2026-05-08 00:13 | 34.99608 | -120.06265 | 28211 ft | 367 kts | 323° |
| 2026-05-08 00:14 | 35.01613 | -120.08209 | 28740 ft | 369 kts | 323° |
| 2026-05-08 00:14 | 35.03625 | -120.10160 | 29274 ft | 370 kts | 323° |
| 2026-05-08 00:14 | 35.05649 | -120.12124 | 29731 ft | 373 kts | 323° |
| 2026-05-08 00:14 | 35.07662 | -120.14079 | 30167 ft | 376 kts | 322° |
| 2026-05-08 00:15 | 35.09719 | -120.16078 | 30549 ft | 379 kts | 323° |
| 2026-05-08 00:15 | 35.11788 | -120.18092 | 30938 ft | 381 kts | 322° |
| 2026-05-08 00:15 | 35.13867 | -120.20117 | 31325 ft | 383 kts | 322° |
| 2026-05-08 00:15 | 35.15957 | -120.22154 | 31716 ft | 385 kts | 322° |
| 2026-05-08 00:16 | 35.17372 | -120.23534 | 31976 ft | 386 kts | 322° |
| 2026-05-08 00:16 | 35.19477 | -120.25587 | 32034 ft | 398 kts | 322° |
| 2026-05-08 00:16 | 35.21666 | -120.27725 | 32057 ft | 409 kts | 322° |
| 2026-05-08 00:16 | 35.23913 | -120.29920 | 32054 ft | 416 kts | 322° |
| 2026-05-08 00:17 | 35.28422 | -120.34333 | 32037 ft | 411 kts | 322° |
| 2026-05-08 00:17 | 35.32858 | -120.38680 | 32054 ft | 409 kts | 322° |
| 2026-05-08 00:18 | 35.37316 | -120.43053 | 32056 ft | 411 kts | 322° |
| 2026-05-08 00:18 | 35.41793 | -120.47453 | 32056 ft | 413 kts | 322° |
| 2026-05-08 00:19 | 35.46273 | -120.51862 | 32040 ft | 412 kts | 322° |
| 2026-05-08 00:19 | 35.50733 | -120.56257 | 32041 ft | 410 kts | 321° |
| 2026-05-08 00:20 | 35.55285 | -120.60442 | 32046 ft | 408 kts | 327° |
| 2026-05-08 00:20 | 35.60087 | -120.64137 | 32046 ft | 407 kts | 329° |
| 2026-05-08 00:21 | 35.64868 | -120.67778 | 32049 ft | 406 kts | 328° |
| 2026-05-08 00:21 | 35.69648 | -120.71494 | 32048 ft | 407 kts | 328° |
| 2026-05-08 00:22 | 35.74429 | -120.75252 | 32050 ft | 408 kts | 327° |
| 2026-05-08 00:22 | 35.79214 | -120.79026 | 32042 ft | 408 kts | 327° |
| 2026-05-08 00:23 | 35.84007 | -120.82811 | 32041 ft | 409 kts | 327° |
| 2026-05-08 00:23 | 35.88771 | -120.86578 | 32048 ft | 415 kts | 327° |
| 2026-05-08 00:24 | 35.91267 | -120.88554 | 31923 ft | 429 kts | 327° |
| 2026-05-08 00:24 | 35.93808 | -120.90567 | 31552 ft | 448 kts | 327° |
| 2026-05-08 00:24 | 35.96485 | -120.92689 | 31180 ft | 453 kts | 327° |
| 2026-05-08 00:24 | 35.98726 | -120.94467 | 30862 ft | 450 kts | 327° |
| 2026-05-08 00:25 | 36.01339 | -120.96562 | 30505 ft | 446 kts | 326° |
| 2026-05-08 00:25 | 36.03844 | -120.98796 | 30147 ft | 442 kts | 323° |
| 2026-05-08 00:25 | 36.06274 | -121.01118 | 29735 ft | 439 kts | 322° |
| 2026-05-08 00:25 | 36.08663 | -121.03453 | 29329 ft | 437 kts | 322° |
| 2026-05-08 00:26 | 36.11040 | -121.05774 | 28914 ft | 434 kts | 322° |
| 2026-05-08 00:26 | 36.13406 | -121.08066 | 28521 ft | 432 kts | 322° |
| 2026-05-08 00:26 | 36.15777 | -121.10344 | 28136 ft | 429 kts | 322° |
| 2026-05-08 00:26 | 36.18131 | -121.12595 | 27749 ft | 427 kts | 322° |
| 2026-05-08 00:27 | 36.20482 | -121.14840 | 27372 ft | 425 kts | 322° |
| 2026-05-08 00:27 | 36.22821 | -121.17071 | 26997 ft | 423 kts | 322° |
| 2026-05-08 00:27 | 36.25147 | -121.19292 | 26631 ft | 422 kts | 322° |
| 2026-05-08 00:27 | 36.27468 | -121.21511 | 26264 ft | 420 kts | 322° |
| 2026-05-08 00:28 | 36.29777 | -121.23722 | 25905 ft | 418 kts | 322° |
| 2026-05-08 00:28 | 36.32069 | -121.25916 | 25553 ft | 415 kts | 322° |
| 2026-05-08 00:28 | 36.34356 | -121.28108 | 25202 ft | 413 kts | 322° |
| 2026-05-08 00:28 | 36.36594 | -121.30256 | 24856 ft | 411 kts | 322° |
| 2026-05-08 00:29 | 36.38848 | -121.32426 | 24517 ft | 409 kts | 322° |
| 2026-05-08 00:29 | 36.41090 | -121.34588 | 24183 ft | 407 kts | 322° |
| 2026-05-08 00:29 | 36.43325 | -121.36744 | 23837 ft | 405 kts | 322° |
| 2026-05-08 00:29 | 36.45546 | -121.38888 | 23490 ft | 404 kts | 322° |
| 2026-05-08 00:30 | 36.47756 | -121.41022 | 23098 ft | 401 kts | 322° |
| 2026-05-08 00:30 | 36.50003 | -121.43064 | 22694 ft | 399 kts | 330° |
| 2026-05-08 00:30 | 36.52554 | -121.44385 | 22324 ft | 396 kts | 341° |
| 2026-05-08 00:30 | 36.55164 | -121.45446 | 21944 ft | 393 kts | 342° |
| 2026-05-08 00:31 | 36.57760 | -121.46478 | 21575 ft | 391 kts | 342° |
| 2026-05-08 00:31 | 36.60232 | -121.47477 | 21214 ft | 388 kts | 342° |
| 2026-05-08 00:31 | 36.62790 | -121.48532 | 20849 ft | 385 kts | 341° |
| 2026-05-08 00:31 | 36.65322 | -121.49592 | 20481 ft | 383 kts | 341° |
| 2026-05-08 00:32 | 36.67838 | -121.50655 | 20124 ft | 380 kts | 341° |
| 2026-05-08 00:32 | 36.70332 | -121.51711 | 19766 ft | 377 kts | 341° |
| 2026-05-08 00:32 | 36.72814 | -121.52763 | 19388 ft | 375 kts | 341° |
| 2026-05-08 00:32 | 36.75271 | -121.53804 | 18986 ft | 370 kts | 341° |
| 2026-05-08 00:33 | 36.77690 | -121.54831 | 18585 ft | 365 kts | 341° |
| 2026-05-08 00:33 | 36.80085 | -121.55846 | 18142 ft | 362 kts | 341° |
| 2026-05-08 00:33 | 36.82466 | -121.56853 | 17511 ft | 364 kts | 341° |
| 2026-05-08 00:33 | 36.84878 | -121.57867 | 16746 ft | 365 kts | 341° |
| 2026-05-08 00:34 | 36.87258 | -121.58862 | 16018 ft | 365 kts | 341° |
| 2026-05-08 00:34 | 36.89647 | -121.59855 | 15593 ft | 357 kts | 341° |
| 2026-05-08 00:34 | 36.91994 | -121.60829 | 15452 ft | 355 kts | 341° |
| 2026-05-08 00:34 | 36.94349 | -121.61805 | 14848 ft | 359 kts | 341° |
| 2026-05-08 00:35 | 36.96716 | -121.62782 | 14155 ft | 357 kts | 341° |
| 2026-05-08 00:35 | 36.99070 | -121.63748 | 13412 ft | 353 kts | 341° |
| 2026-05-08 00:35 | 37.01388 | -121.64681 | 12655 ft | 348 kts | 341° |
| 2026-05-08 00:35 | 37.03683 | -121.65582 | 11925 ft | 343 kts | 341° |
| 2026-05-08 00:36 | 37.05951 | -121.66455 | 11201 ft | 339 kts | 341° |
| 2026-05-08 00:36 | 37.08195 | -121.67314 | 10472 ft | 336 kts | 341° |
| 2026-05-08 00:36 | 37.10428 | -121.68166 | 9661 ft | 335 kts | 341° |
| 2026-05-08 00:36 | 37.12658 | -121.69014 | 8850 ft | 333 kts | 341° |
| 2026-05-08 00:37 | 37.14874 | -121.69853 | 8021 ft | 331 kts | 341° |
| 2026-05-08 00:37 | 37.17070 | -121.70684 | 7234 ft | 329 kts | 341° |
| 2026-05-08 00:37 | 37.19251 | -121.71508 | 6456 ft | 325 kts | 341° |
| 2026-05-08 00:38 | 37.23139 | -121.74037 | 4757 ft | 319 kts | 310° |
| 2026-05-08 00:38 | 37.24488 | -121.76220 | 3939 ft | 316 kts | 308° |
| 2026-05-08 00:38 | 37.25814 | -121.78396 | 3233 ft | 311 kts | 308° |
| 2026-05-08 00:38 | 37.27160 | -121.80418 | 3000 ft | 293 kts | 306° |
| 2026-05-08 00:39 | 37.28217 | -121.82611 | 2884 ft | 294 kts | 300° |
| 2026-05-08 00:39 | 37.29350 | -121.84745 | 2762 ft | 293 kts | 308° |
| 2026-05-08 00:39 | 37.30697 | -121.86672 | 2722 ft | 295 kts | 315° |